sensor_id;sensor_type;location;lat;lon;timestamp;temperature;humidity
21834;DHT22;11079;51.092;3.458;2022-10-19T00:01:58;13.30;99.90
21834;DHT22;11079;51.092;3.458;2022-10-19T00:04:37;13.40;99.90
21834;DHT22;11079;51.092;3.458;2022-10-19T00:07:06;13.40;99.90
21834;DHT22;11079;51.092;3.458;2022-10-19T00:09:37;13.40;99.90
21834;DHT22;11079;51.092;3.458;2022-10-19T00:12:24;13.30;99.90
21834;DHT22;11079;51.092;3.458;2022-10-19T00:14:57;13.30;99.90
21834;DHT22;11079;51.092;3.458;2022-10-19T00:17:23;13.40;99.90
21834;DHT22;11079;51.092;3.458;2022-10-19T00:19:52;13.30;99.90
21834;DHT22;11079;51.092;3.458;2022-10-19T00:22:25;13.10;99.90
21834;DHT22;11079;51.092;3.458;2022-10-19T00:24:59;13.10;99.90
21834;DHT22;11079;51.092;3.458;2022-10-19T00:28:05;13.30;99.90
21834;DHT22;11079;51.092;3.458;2022-10-19T00:30:44;13.40;99.90
21834;DHT22;11079;51.092;3.458;2022-10-19T00:33:14;13.30;99.90
21834;DHT22;11079;51.092;3.458;2022-10-19T00:35:50;13.30;99.90
21834;DHT22;11079;51.092;3.458;2022-10-19T00:38:27;13.20;99.90
21834;DHT22;11079;51.092;3.458;2022-10-19T00:41:13;13.20;99.90
21834;DHT22;11079;51.092;3.458;2022-10-19T00:47:11;13.30;99.90
21834;DHT22;11079;51.092;3.458;2022-10-19T00:50:01;13.40;99.90
21834;DHT22;11079;51.092;3.458;2022-10-19T00:56:14;13.20;99.90
21834;DHT22;11079;51.092;3.458;2022-10-19T00:59:14;13.00;99.90
21834;DHT22;11079;51.092;3.458;2022-10-19T01:02:02;12.70;99.90
21834;DHT22;11079;51.092;3.458;2022-10-19T01:04:44;12.80;99.90
21834;DHT22;11079;51.092;3.458;2022-10-19T01:07:18;12.70;99.90
21834;DHT22;11079;51.092;3.458;2022-10-19T01:09:53;12.80;99.90
21834;DHT22;11079;51.092;3.458;2022-10-19T01:12:28;12.80;99.90
21834;DHT22;11079;51.092;3.458;2022-10-19T01:18:43;12.70;99.90
21834;DHT22;11079;51.092;3.458;2022-10-19T01:34:47;12.60;99.90
21834;DHT22;11079;51.092;3.458;2022-10-19T01:43:04;12.60;99.90
21834;DHT22;11079;51.092;3.458;2022-10-19T01:48:40;12.60;99.90
21834;DHT22;11079;51.092;3.458;2022-10-19T01:51:53;12.50;99.90
21834;DHT22;11079;51.092;3.458;2022-10-19T01:54:29;12.40;99.90
21834;DHT22;11079;51.092;3.458;2022-10-19T01:56:59;12.50;99.90
21834;DHT22;11079;51.092;3.458;2022-10-19T01:59:26;12.50;99.90
21834;DHT22;11079;51.092;3.458;2022-10-19T02:01:56;12.50;99.90
21834;DHT22;11079;51.092;3.458;2022-10-19T02:04:25;12.50;99.90
21834;DHT22;11079;51.092;3.458;2022-10-19T02:06:54;12.50;99.90
21834;DHT22;11079;51.092;3.458;2022-10-19T02:09:24;12.30;99.90
21834;DHT22;11079;51.092;3.458;2022-10-19T02:12:09;12.40;99.90
21834;DHT22;11079;51.092;3.458;2022-10-19T02:14:57;12.30;99.90
21834;DHT22;11079;51.092;3.458;2022-10-19T02:17:27;12.20;99.90
21834;DHT22;11079;51.092;3.458;2022-10-19T02:20:21;12.30;99.90
21834;DHT22;11079;51.092;3.458;2022-10-19T02:22:47;12.50;99.90
21834;DHT22;11079;51.092;3.458;2022-10-19T02:25:19;12.40;99.90
21834;DHT22;11079;51.092;3.458;2022-10-19T02:27:50;12.30;99.90
21834;DHT22;11079;51.092;3.458;2022-10-19T02:30:38;12.20;99.90
21834;DHT22;11079;51.092;3.458;2022-10-19T02:33:13;12.10;99.90
21834;DHT22;11079;51.092;3.458;2022-10-19T02:35:39;12.10;99.90
21834;DHT22;11079;51.092;3.458;2022-10-19T02:38:06;12.20;99.90
21834;DHT22;11079;51.092;3.458;2022-10-19T02:40:40;12.20;99.90
21834;DHT22;11079;51.092;3.458;2022-10-19T02:43:11;12.20;99.90
21834;DHT22;11079;51.092;3.458;2022-10-19T02:45:59;12.20;99.90
21834;DHT22;11079;51.092;3.458;2022-10-19T02:48:48;12.10;99.90
21834;DHT22;11079;51.092;3.458;2022-10-19T02:51:34;12.20;99.90
21834;DHT22;11079;51.092;3.458;2022-10-19T02:54:04;12.10;99.90
21834;DHT22;11079;51.092;3.458;2022-10-19T02:56:35;12.10;99.90
21834;DHT22;11079;51.092;3.458;2022-10-19T02:59:02;12.20;99.90
21834;DHT22;11079;51.092;3.458;2022-10-19T03:01:30;12.20;99.90
21834;DHT22;11079;51.092;3.458;2022-10-19T03:04:08;12.10;99.90
21834;DHT22;11079;51.092;3.458;2022-10-19T03:06:40;12.20;99.90
21834;DHT22;11079;51.092;3.458;2022-10-19T03:09:05;12.10;99.90
21834;DHT22;11079;51.092;3.458;2022-10-19T03:19:27;11.90;99.90
21834;DHT22;11079;51.092;3.458;2022-10-19T03:21:53;12.00;99.90
21834;DHT22;11079;51.092;3.458;2022-10-19T03:24:23;12.00;99.90
21834;DHT22;11079;51.092;3.458;2022-10-19T03:27:10;12.00;99.90
21834;DHT22;11079;51.092;3.458;2022-10-19T03:29:52;12.00;99.90
21834;DHT22;11079;51.092;3.458;2022-10-19T03:32:21;11.90;99.90
21834;DHT22;11079;51.092;3.458;2022-10-19T03:34:58;11.90;99.90
21834;DHT22;11079;51.092;3.458;2022-10-19T03:37:26;11.70;99.90
21834;DHT22;11079;51.092;3.458;2022-10-19T03:39:52;11.60;99.90
21834;DHT22;11079;51.092;3.458;2022-10-19T03:42:20;11.80;99.90
21834;DHT22;11079;51.092;3.458;2022-10-19T03:44:46;11.90;99.90
21834;DHT22;11079;51.092;3.458;2022-10-19T03:47:14;11.90;99.90
21834;DHT22;11079;51.092;3.458;2022-10-19T03:49:40;11.90;99.90
21834;DHT22;11079;51.092;3.458;2022-10-19T03:52:14;11.80;99.90
21834;DHT22;11079;51.092;3.458;2022-10-19T03:54:40;11.80;99.90
21834;DHT22;11079;51.092;3.458;2022-10-19T03:57:08;11.90;99.90
21834;DHT22;11079;51.092;3.458;2022-10-19T03:59:35;11.80;99.90
21834;DHT22;11079;51.092;3.458;2022-10-19T04:02:02;11.70;99.90
21834;DHT22;11079;51.092;3.458;2022-10-19T04:04:28;11.80;99.90
21834;DHT22;11079;51.092;3.458;2022-10-19T04:06:53;11.80;99.90
21834;DHT22;11079;51.092;3.458;2022-10-19T04:09:31;11.80;99.90
21834;DHT22;11079;51.092;3.458;2022-10-19T04:12:04;11.70;99.90
21834;DHT22;11079;51.092;3.458;2022-10-19T04:14:32;11.70;99.90
21834;DHT22;11079;51.092;3.458;2022-10-19T04:17:03;11.70;99.90
21834;DHT22;11079;51.092;3.458;2022-10-19T04:19:29;11.80;99.90
21834;DHT22;11079;51.092;3.458;2022-10-19T04:25:02;11.80;99.90
21834;DHT22;11079;51.092;3.458;2022-10-19T04:28:02;11.90;99.90
21834;DHT22;11079;51.092;3.458;2022-10-19T04:33:47;11.90;99.90
21834;DHT22;11079;51.092;3.458;2022-10-19T04:36:12;12.00;99.90
21834;DHT22;11079;51.092;3.458;2022-10-19T04:38:49;11.90;99.90
21834;DHT22;11079;51.092;3.458;2022-10-19T04:41:27;11.70;99.90
21834;DHT22;11079;51.092;3.458;2022-10-19T04:44:01;11.70;99.90
21834;DHT22;11079;51.092;3.458;2022-10-19T04:46:32;11.60;99.90
21834;DHT22;11079;51.092;3.458;2022-10-19T04:48:58;11.60;99.90
21834;DHT22;11079;51.092;3.458;2022-10-19T04:51:28;11.70;99.90
21834;DHT22;11079;51.092;3.458;2022-10-19T04:54:05;11.80;99.90
21834;DHT22;11079;51.092;3.458;2022-10-19T04:56:46;11.80;99.90
21834;DHT22;11079;51.092;3.458;2022-10-19T05:02:07;11.80;99.90
21834;DHT22;11079;51.092;3.458;2022-10-19T05:04:36;11.80;99.90
21834;DHT22;11079;51.092;3.458;2022-10-19T05:07:11;11.60;99.90
21834;DHT22;11079;51.092;3.458;2022-10-19T05:10:12;11.70;99.90
21834;DHT22;11079;51.092;3.458;2022-10-19T05:12:59;11.60;99.90
21834;DHT22;11079;51.092;3.458;2022-10-19T05:15:31;11.70;99.90
21834;DHT22;11079;51.092;3.458;2022-10-19T05:17:57;11.60;99.90
21834;DHT22;11079;51.092;3.458;2022-10-19T05:20:38;11.60;99.90
21834;DHT22;11079;51.092;3.458;2022-10-19T05:23:04;11.70;99.90
21834;DHT22;11079;51.092;3.458;2022-10-19T05:25:36;11.60;99.90
21834;DHT22;11079;51.092;3.458;2022-10-19T05:28:04;11.50;99.90
21834;DHT22;11079;51.092;3.458;2022-10-19T05:30:30;11.50;99.90
21834;DHT22;11079;51.092;3.458;2022-10-19T05:33:02;11.30;99.90
21834;DHT22;11079;51.092;3.458;2022-10-19T05:35:27;11.40;99.90
21834;DHT22;11079;51.092;3.458;2022-10-19T05:38:19;11.40;99.90
21834;DHT22;11079;51.092;3.458;2022-10-19T05:41:03;11.30;99.90
21834;DHT22;11079;51.092;3.458;2022-10-19T05:43:40;11.30;99.90
21834;DHT22;11079;51.092;3.458;2022-10-19T05:46:16;11.30;99.90
21834;DHT22;11079;51.092;3.458;2022-10-19T05:48:43;11.30;99.90
21834;DHT22;11079;51.092;3.458;2022-10-19T05:51:18;11.40;99.90
21834;DHT22;11079;51.092;3.458;2022-10-19T05:53:47;11.30;99.90
21834;DHT22;11079;51.092;3.458;2022-10-19T05:56:31;11.40;99.90
21834;DHT22;11079;51.092;3.458;2022-10-19T05:59:09;11.50;99.90
21834;DHT22;11079;51.092;3.458;2022-10-19T06:01:53;11.60;99.90
21834;DHT22;11079;51.092;3.458;2022-10-19T06:07:54;11.60;99.90
21834;DHT22;11079;51.092;3.458;2022-10-19T06:10:35;11.50;99.90
21834;DHT22;11079;51.092;3.458;2022-10-19T06:13:39;11.60;99.90
21834;DHT22;11079;51.092;3.458;2022-10-19T06:16:09;11.60;99.90
21834;DHT22;11079;51.092;3.458;2022-10-19T06:18:35;11.60;99.90
21834;DHT22;11079;51.092;3.458;2022-10-19T06:21:10;11.60;99.90
21834;DHT22;11079;51.092;3.458;2022-10-19T06:23:36;11.70;99.90
21834;DHT22;11079;51.092;3.458;2022-10-19T06:26:10;11.70;99.90
21834;DHT22;11079;51.092;3.458;2022-10-19T06:28:58;11.60;99.90
21834;DHT22;11079;51.092;3.458;2022-10-19T06:31:43;11.70;99.90
21834;DHT22;11079;51.092;3.458;2022-10-19T06:34:10;11.70;99.90
21834;DHT22;11079;51.092;3.458;2022-10-19T06:36:35;11.60;99.90
21834;DHT22;11079;51.092;3.458;2022-10-19T06:39:04;11.70;99.90
21834;DHT22;11079;51.092;3.458;2022-10-19T06:41:50;11.70;99.90
21834;DHT22;11079;51.092;3.458;2022-10-19T06:44:47;11.90;99.90
21834;DHT22;11079;51.092;3.458;2022-10-19T06:47:15;12.00;99.90
21834;DHT22;11079;51.092;3.458;2022-10-19T06:53:39;12.50;99.90
21834;DHT22;11079;51.092;3.458;2022-10-19T06:56:20;13.00;99.90
21834;DHT22;11079;51.092;3.458;2022-10-19T06:58:46;13.20;99.90
21834;DHT22;11079;51.092;3.458;2022-10-19T07:01:15;13.80;99.90
21834;DHT22;11079;51.092;3.458;2022-10-19T07:03:56;14.00;99.90
21834;DHT22;11079;51.092;3.458;2022-10-19T07:06:41;14.50;99.90
21834;DHT22;11079;51.092;3.458;2022-10-19T07:09:10;14.90;99.90
21834;DHT22;11079;51.092;3.458;2022-10-19T07:11:36;15.10;99.90
21834;DHT22;11079;51.092;3.458;2022-10-19T07:20:22;15.90;99.90
21834;DHT22;11079;51.092;3.458;2022-10-19T07:22:49;15.90;99.90
21834;DHT22;11079;51.092;3.458;2022-10-19T07:25:44;15.90;99.90
21834;DHT22;11079;51.092;3.458;2022-10-19T07:28:47;15.70;99.90
21834;DHT22;11079;51.092;3.458;2022-10-19T07:35:00;15.50;99.90
21834;DHT22;11079;51.092;3.458;2022-10-19T07:37:26;15.60;99.90
21834;DHT22;11079;51.092;3.458;2022-10-19T07:39:54;15.50;99.90
21834;DHT22;11079;51.092;3.458;2022-10-19T07:42:23;15.40;99.90
21834;DHT22;11079;51.092;3.458;2022-10-19T07:44:52;15.40;99.90
21834;DHT22;11079;51.092;3.458;2022-10-19T07:47:37;15.60;99.90
21834;DHT22;11079;51.092;3.458;2022-10-19T07:54:00;15.60;99.90
21834;DHT22;11079;51.092;3.458;2022-10-19T07:56:27;16.30;99.90
21834;DHT22;11079;51.092;3.458;2022-10-19T07:59:04;16.50;99.90
21834;DHT22;11079;51.092;3.458;2022-10-19T08:04:46;16.00;99.90
21834;DHT22;11079;51.092;3.458;2022-10-19T08:07:15;15.70;99.90
21834;DHT22;11079;51.092;3.458;2022-10-19T08:09:41;15.50;99.90
21834;DHT22;11079;51.092;3.458;2022-10-19T08:12:08;15.60;99.90
21834;DHT22;11079;51.092;3.458;2022-10-19T08:14:35;15.70;99.90
21834;DHT22;11079;51.092;3.458;2022-10-19T08:17:01;16.00;99.90
21834;DHT22;11079;51.092;3.458;2022-10-19T08:20:02;16.20;99.90
21834;DHT22;11079;51.092;3.458;2022-10-19T08:22:30;16.60;99.90
21834;DHT22;11079;51.092;3.458;2022-10-19T08:25:35;17.90;99.90
21834;DHT22;11079;51.092;3.458;2022-10-19T08:28:19;19.00;99.90
21834;DHT22;11079;51.092;3.458;2022-10-19T08:30:45;19.10;99.90
21834;DHT22;11079;51.092;3.458;2022-10-19T08:36:33;20.00;99.90
21834;DHT22;11079;51.092;3.458;2022-10-19T08:39:19;20.10;99.90
21834;DHT22;11079;51.092;3.458;2022-10-19T08:42:20;20.50;99.90
21834;DHT22;11079;51.092;3.458;2022-10-19T08:45:35;20.60;99.90
21834;DHT22;11079;51.092;3.458;2022-10-19T08:48:28;21.00;99.90
21834;DHT22;11079;51.092;3.458;2022-10-19T08:51:18;21.60;99.90
21834;DHT22;11079;51.092;3.458;2022-10-19T08:58:06;22.60;99.90
21834;DHT22;11079;51.092;3.458;2022-10-19T09:00:48;21.50;99.90
21834;DHT22;11079;51.092;3.458;2022-10-19T09:03:34;22.00;99.90
21834;DHT22;11079;51.092;3.458;2022-10-19T09:09:19;21.80;99.90
21834;DHT22;11079;51.092;3.458;2022-10-19T09:11:49;22.60;99.90
21834;DHT22;11079;51.092;3.458;2022-10-19T09:17:16;23.60;99.90
21834;DHT22;11079;51.092;3.458;2022-10-19T09:19:41;23.60;99.90
21834;DHT22;11079;51.092;3.458;2022-10-19T09:22:19;22.90;99.90
21834;DHT22;11079;51.092;3.458;2022-10-19T09:27:39;23.00;99.90
21834;DHT22;11079;51.092;3.458;2022-10-19T09:30:22;23.60;99.90
21834;DHT22;11079;51.092;3.458;2022-10-19T09:32:54;22.50;99.90
21834;DHT22;11079;51.092;3.458;2022-10-19T09:35:53;22.70;99.90
21834;DHT22;11079;51.092;3.458;2022-10-19T09:38:40;23.20;99.90
21834;DHT22;11079;51.092;3.458;2022-10-19T09:41:19;23.00;99.90
21834;DHT22;11079;51.092;3.458;2022-10-19T09:43:56;22.20;99.90
21834;DHT22;11079;51.092;3.458;2022-10-19T09:46:46;22.60;99.90
21834;DHT22;11079;51.092;3.458;2022-10-19T09:49:52;22.90;99.90
21834;DHT22;11079;51.092;3.458;2022-10-19T09:52:38;23.40;99.90
21834;DHT22;11079;51.092;3.458;2022-10-19T09:58:27;23.20;99.90
21834;DHT22;11079;51.092;3.458;2022-10-19T10:01:36;22.50;99.90
21834;DHT22;11079;51.092;3.458;2022-10-19T10:04:21;22.40;99.90
21834;DHT22;11079;51.092;3.458;2022-10-19T10:06:48;22.60;99.90
21834;DHT22;11079;51.092;3.458;2022-10-19T10:09:34;22.40;99.90
21834;DHT22;11079;51.092;3.458;2022-10-19T10:12:24;22.10;99.90
21834;DHT22;11079;51.092;3.458;2022-10-19T10:18:17;21.40;99.90
21834;DHT22;11079;51.092;3.458;2022-10-19T10:21:20;21.50;99.90
21834;DHT22;11079;51.092;3.458;2022-10-19T10:27:59;21.50;99.90
21834;DHT22;11079;51.092;3.458;2022-10-19T10:30:45;20.70;99.90
21834;DHT22;11079;51.092;3.458;2022-10-19T10:33:37;20.70;99.90
21834;DHT22;11079;51.092;3.458;2022-10-19T10:36:42;21.20;99.90
21834;DHT22;11079;51.092;3.458;2022-10-19T10:39:38;21.50;99.90
21834;DHT22;11079;51.092;3.458;2022-10-19T10:49:06;20.70;99.90
21834;DHT22;11079;51.092;3.458;2022-10-19T10:52:12;20.80;99.90
21834;DHT22;11079;51.092;3.458;2022-10-19T10:55:43;20.80;99.90
21834;DHT22;11079;51.092;3.458;2022-10-19T10:58:43;21.00;99.90
21834;DHT22;11079;51.092;3.458;2022-10-19T11:01:40;21.40;99.90
21834;DHT22;11079;51.092;3.458;2022-10-19T11:04:28;21.40;99.90
21834;DHT22;11079;51.092;3.458;2022-10-19T11:07:36;21.70;99.90
21834;DHT22;11079;51.092;3.458;2022-10-19T11:10:54;22.40;99.90
21834;DHT22;11079;51.092;3.458;2022-10-19T11:26:55;21.60;99.90
21834;DHT22;11079;51.092;3.458;2022-10-19T11:31:57;22.90;99.90
21834;DHT22;11079;51.092;3.458;2022-10-19T11:34:46;23.00;99.90
21834;DHT22;11079;51.092;3.458;2022-10-19T11:49:25;23.80;99.90
21834;DHT22;11079;51.092;3.458;2022-10-19T11:52:04;24.30;99.90
21834;DHT22;11079;51.092;3.458;2022-10-19T11:57:42;23.60;99.90
21834;DHT22;11079;51.092;3.458;2022-10-19T12:00:20;23.20;99.90
21834;DHT22;11079;51.092;3.458;2022-10-19T12:08:43;23.50;99.90
21834;DHT22;11079;51.092;3.458;2022-10-19T12:11:44;23.20;99.90
21834;DHT22;11079;51.092;3.458;2022-10-19T12:14:21;23.20;99.90
21834;DHT22;11079;51.092;3.458;2022-10-19T12:16:52;22.80;99.90
21834;DHT22;11079;51.092;3.458;2022-10-19T12:19:30;22.50;99.90
21834;DHT22;11079;51.092;3.458;2022-10-19T12:22:05;21.90;99.90
21834;DHT22;11079;51.092;3.458;2022-10-19T12:24:32;21.90;99.90
21834;DHT22;11079;51.092;3.458;2022-10-19T12:26:59;21.80;99.90
21834;DHT22;11079;51.092;3.458;2022-10-19T12:29:30;21.70;99.90
21834;DHT22;11079;51.092;3.458;2022-10-19T12:31:58;21.20;99.90
21834;DHT22;11079;51.092;3.458;2022-10-19T12:40:25;20.30;99.90
21834;DHT22;11079;51.092;3.458;2022-10-19T12:46:20;19.90;99.90
21834;DHT22;11079;51.092;3.458;2022-10-19T12:51:56;20.20;99.90
21834;DHT22;11079;51.092;3.458;2022-10-19T12:54:29;20.20;99.90
21834;DHT22;11079;51.092;3.458;2022-10-19T12:56:58;19.90;99.90
21834;DHT22;11079;51.092;3.458;2022-10-19T12:59:34;19.70;99.90
21834;DHT22;11079;51.092;3.458;2022-10-19T13:02:03;19.70;99.90
21834;DHT22;11079;51.092;3.458;2022-10-19T13:04:33;19.60;99.90
21834;DHT22;11079;51.092;3.458;2022-10-19T13:07:05;19.50;99.90
21834;DHT22;11079;51.092;3.458;2022-10-19T13:09:43;19.30;99.90
21834;DHT22;11079;51.092;3.458;2022-10-19T13:14:59;19.30;99.90
21834;DHT22;11079;51.092;3.458;2022-10-19T13:17:39;19.30;99.90
21834;DHT22;11079;51.092;3.458;2022-10-19T13:27:50;18.70;99.90
21834;DHT22;11079;51.092;3.458;2022-10-19T14:00:24;19.20;99.90
21834;DHT22;11079;51.092;3.458;2022-10-19T14:06:27;19.20;99.90
21834;DHT22;11079;51.092;3.458;2022-10-19T14:09:20;19.20;99.90
21834;DHT22;11079;51.092;3.458;2022-10-19T14:11:59;19.10;99.90
21834;DHT22;11079;51.092;3.458;2022-10-19T14:14:38;19.20;99.90
21834;DHT22;11079;51.092;3.458;2022-10-19T14:17:17;19.10;99.90
21834;DHT22;11079;51.092;3.458;2022-10-19T14:19:46;19.00;99.90
21834;DHT22;11079;51.092;3.458;2022-10-19T14:22:26;18.90;99.90
21834;DHT22;11079;51.092;3.458;2022-10-19T14:25:17;18.80;99.90
21834;DHT22;11079;51.092;3.458;2022-10-19T14:27:44;18.80;99.90
21834;DHT22;11079;51.092;3.458;2022-10-19T14:30:21;18.90;99.90
21834;DHT22;11079;51.092;3.458;2022-10-19T14:32:47;18.90;99.90
21834;DHT22;11079;51.092;3.458;2022-10-19T14:35:20;18.90;99.90
21834;DHT22;11079;51.092;3.458;2022-10-19T14:37:46;18.80;99.90
21834;DHT22;11079;51.092;3.458;2022-10-19T14:40:32;18.50;99.90
21834;DHT22;11079;51.092;3.458;2022-10-19T14:42:59;18.30;99.90
21834;DHT22;11079;51.092;3.458;2022-10-19T14:45:30;18.40;99.90
21834;DHT22;11079;51.092;3.458;2022-10-19T14:48:03;18.40;99.90
21834;DHT22;11079;51.092;3.458;2022-10-19T14:50:50;18.60;99.90
21834;DHT22;11079;51.092;3.458;2022-10-19T14:53:38;18.60;99.90
21834;DHT22;11079;51.092;3.458;2022-10-19T14:56:21;18.70;99.90
21834;DHT22;11079;51.092;3.458;2022-10-19T14:58:56;18.90;99.90
21834;DHT22;11079;51.092;3.458;2022-10-19T15:01:23;19.20;99.90
21834;DHT22;11079;51.092;3.458;2022-10-19T15:03:52;19.40;99.90
21834;DHT22;11079;51.092;3.458;2022-10-19T15:06:25;19.50;99.90
21834;DHT22;11079;51.092;3.458;2022-10-19T15:09:14;19.40;99.90
21834;DHT22;11079;51.092;3.458;2022-10-19T15:11:43;19.00;99.90
21834;DHT22;11079;51.092;3.458;2022-10-19T15:14:19;18.70;99.90
21834;DHT22;11079;51.092;3.458;2022-10-19T15:16:57;18.50;99.90
21834;DHT22;11079;51.092;3.458;2022-10-19T15:19:39;18.50;99.90
21834;DHT22;11079;51.092;3.458;2022-10-19T15:24:37;18.20;99.90
21834;DHT22;11079;51.092;3.458;2022-10-19T15:27:20;18.10;99.90
21834;DHT22;11079;51.092;3.458;2022-10-19T15:30:02;17.90;99.90
21834;DHT22;11079;51.092;3.458;2022-10-19T15:32:33;17.70;99.90
21834;DHT22;11079;51.092;3.458;2022-10-19T15:35:11;17.70;99.90
21834;DHT22;11079;51.092;3.458;2022-10-19T15:37:42;17.50;99.90
21834;DHT22;11079;51.092;3.458;2022-10-19T15:40:21;17.40;99.90
21834;DHT22;11079;51.092;3.458;2022-10-19T15:42:47;17.30;99.90
21834;DHT22;11079;51.092;3.458;2022-10-19T15:45:32;17.30;99.90
21834;DHT22;11079;51.092;3.458;2022-10-19T15:50:47;17.10;99.90
21834;DHT22;11079;51.092;3.458;2022-10-19T15:53:14;17.20;99.90
21834;DHT22;11079;51.092;3.458;2022-10-19T15:55:40;17.20;99.90
21834;DHT22;11079;51.092;3.458;2022-10-19T15:58:08;17.10;99.90
21834;DHT22;11079;51.092;3.458;2022-10-19T16:00:35;16.90;99.90
21834;DHT22;11079;51.092;3.458;2022-10-19T16:03:00;16.90;99.90
21834;DHT22;11079;51.092;3.458;2022-10-19T16:05:26;16.80;99.90
21834;DHT22;11079;51.092;3.458;2022-10-19T16:07:53;17.00;99.90
21834;DHT22;11079;51.092;3.458;2022-10-19T16:10:24;16.80;99.90
21834;DHT22;11079;51.092;3.458;2022-10-19T16:12:50;16.80;99.90
21834;DHT22;11079;51.092;3.458;2022-10-19T16:15:19;16.70;99.90
21834;DHT22;11079;51.092;3.458;2022-10-19T16:17:58;16.60;99.90
21834;DHT22;11079;51.092;3.458;2022-10-19T16:20:25;16.60;99.90
21834;DHT22;11079;51.092;3.458;2022-10-19T16:22:52;16.60;99.90
21834;DHT22;11079;51.092;3.458;2022-10-19T16:25:17;16.40;99.90
21834;DHT22;11079;51.092;3.458;2022-10-19T16:27:43;16.50;99.90
21834;DHT22;11079;51.092;3.458;2022-10-19T16:30:09;16.50;99.90
21834;DHT22;11079;51.092;3.458;2022-10-19T16:32:37;16.40;99.90
21834;DHT22;11079;51.092;3.458;2022-10-19T16:35:05;16.30;99.90
21834;DHT22;11079;51.092;3.458;2022-10-19T16:37:38;16.30;99.90
21834;DHT22;11079;51.092;3.458;2022-10-19T16:40:04;16.20;99.90
21834;DHT22;11079;51.092;3.458;2022-10-19T16:42:38;16.20;99.90
21834;DHT22;11079;51.092;3.458;2022-10-19T16:45:07;16.20;99.90
21834;DHT22;11079;51.092;3.458;2022-10-19T16:47:39;16.10;99.90
21834;DHT22;11079;51.092;3.458;2022-10-19T16:50:10;16.10;99.90
21834;DHT22;11079;51.092;3.458;2022-10-19T16:52:35;16.10;99.90
21834;DHT22;11079;51.092;3.458;2022-10-19T16:55:01;16.10;99.90
21834;DHT22;11079;51.092;3.458;2022-10-19T16:57:31;16.10;99.90
21834;DHT22;11079;51.092;3.458;2022-10-19T16:59:57;16.10;99.90
21834;DHT22;11079;51.092;3.458;2022-10-19T17:06:11;15.80;99.90
21834;DHT22;11079;51.092;3.458;2022-10-19T17:08:38;15.90;99.90
21834;DHT22;11079;51.092;3.458;2022-10-19T17:42:47;15.40;99.90
21834;DHT22;11079;51.092;3.458;2022-10-19T17:45:55;15.40;99.90
21834;DHT22;11079;51.092;3.458;2022-10-19T18:02:41;15.20;99.90
21834;DHT22;11079;51.092;3.458;2022-10-19T18:05:51;15.10;99.90
21834;DHT22;11079;51.092;3.458;2022-10-19T18:14:43;15.20;99.90
21834;DHT22;11079;51.092;3.458;2022-10-19T18:20:16;14.90;99.90
21834;DHT22;11079;51.092;3.458;2022-10-19T18:23:06;14.90;99.90
21834;DHT22;11079;51.092;3.458;2022-10-19T18:25:51;14.90;99.90
21834;DHT22;11079;51.092;3.458;2022-10-19T18:28:17;14.90;99.90
21834;DHT22;11079;51.092;3.458;2022-10-19T18:30:43;15.00;99.90
21834;DHT22;11079;51.092;3.458;2022-10-19T18:33:09;14.90;99.90
21834;DHT22;11079;51.092;3.458;2022-10-19T18:35:46;14.70;99.90
21834;DHT22;11079;51.092;3.458;2022-10-19T18:38:17;14.80;99.90
21834;DHT22;11079;51.092;3.458;2022-10-19T18:40:42;14.90;99.90
21834;DHT22;11079;51.092;3.458;2022-10-19T18:43:08;14.80;99.90
21834;DHT22;11079;51.092;3.458;2022-10-19T18:45:34;14.80;99.90
21834;DHT22;11079;51.092;3.458;2022-10-19T18:48:01;14.80;99.90
21834;DHT22;11079;51.092;3.458;2022-10-19T18:53:21;14.70;99.90
21834;DHT22;11079;51.092;3.458;2022-10-19T18:56:04;14.70;99.90
21834;DHT22;11079;51.092;3.458;2022-10-19T18:58:51;14.70;99.90
21834;DHT22;11079;51.092;3.458;2022-10-19T19:01:30;14.70;99.90
21834;DHT22;11079;51.092;3.458;2022-10-19T19:03:58;14.70;99.90
21834;DHT22;11079;51.092;3.458;2022-10-19T19:06:31;14.70;99.90
21834;DHT22;11079;51.092;3.458;2022-10-19T19:09:00;14.60;99.90
21834;DHT22;11079;51.092;3.458;2022-10-19T19:11:29;14.60;99.90
21834;DHT22;11079;51.092;3.458;2022-10-19T19:14:03;14.70;99.90
21834;DHT22;11079;51.092;3.458;2022-10-19T19:16:33;14.70;99.90
21834;DHT22;11079;51.092;3.458;2022-10-19T19:19:02;14.80;99.90
21834;DHT22;11079;51.092;3.458;2022-10-19T19:21:37;14.70;99.90
21834;DHT22;11079;51.092;3.458;2022-10-19T19:24:27;14.50;99.90
21834;DHT22;11079;51.092;3.458;2022-10-19T19:26:59;14.50;99.90
21834;DHT22;11079;51.092;3.458;2022-10-19T19:29:45;14.60;99.90
21834;DHT22;11079;51.092;3.458;2022-10-19T19:32:13;14.60;99.90
21834;DHT22;11079;51.092;3.458;2022-10-19T19:34:39;14.50;99.90
21834;DHT22;11079;51.092;3.458;2022-10-19T19:37:05;14.40;99.90
21834;DHT22;11079;51.092;3.458;2022-10-19T19:39:31;14.30;99.90
21834;DHT22;11079;51.092;3.458;2022-10-19T19:41:58;14.30;99.90
21834;DHT22;11079;51.092;3.458;2022-10-19T19:44:23;14.40;99.90
21834;DHT22;11079;51.092;3.458;2022-10-19T19:46:56;14.40;99.90
21834;DHT22;11079;51.092;3.458;2022-10-19T19:49:21;14.30;99.90
21834;DHT22;11079;51.092;3.458;2022-10-19T19:51:51;14.30;99.90
21834;DHT22;11079;51.092;3.458;2022-10-19T19:54:19;14.30;99.90
21834;DHT22;11079;51.092;3.458;2022-10-19T19:56:49;14.40;99.90
21834;DHT22;11079;51.092;3.458;2022-10-19T19:59:16;14.30;99.90
21834;DHT22;11079;51.092;3.458;2022-10-19T20:01:53;14.40;99.90
21834;DHT22;11079;51.092;3.458;2022-10-19T20:04:18;14.40;99.90
21834;DHT22;11079;51.092;3.458;2022-10-19T20:06:44;14.30;99.90
21834;DHT22;11079;51.092;3.458;2022-10-19T20:09:10;14.20;99.90
21834;DHT22;11079;51.092;3.458;2022-10-19T20:11:37;14.30;99.90
21834;DHT22;11079;51.092;3.458;2022-10-19T20:14:02;14.30;99.90
21834;DHT22;11079;51.092;3.458;2022-10-19T20:16:29;14.30;99.90
21834;DHT22;11079;51.092;3.458;2022-10-19T20:19:10;14.40;99.90
21834;DHT22;11079;51.092;3.458;2022-10-19T20:21:45;14.40;99.90
21834;DHT22;11079;51.092;3.458;2022-10-19T20:24:11;14.40;99.90
21834;DHT22;11079;51.092;3.458;2022-10-19T20:26:36;14.50;99.90
21834;DHT22;11079;51.092;3.458;2022-10-19T20:29:03;14.30;99.90
21834;DHT22;11079;51.092;3.458;2022-10-19T20:31:30;14.30;99.90
21834;DHT22;11079;51.092;3.458;2022-10-19T20:33:56;14.40;99.90
21834;DHT22;11079;51.092;3.458;2022-10-19T20:36:23;14.50;99.90
21834;DHT22;11079;51.092;3.458;2022-10-19T20:38:54;14.50;99.90
21834;DHT22;11079;51.092;3.458;2022-10-19T20:41:23;14.60;99.90
21834;DHT22;11079;51.092;3.458;2022-10-19T20:43:49;14.40;99.90
21834;DHT22;11079;51.092;3.458;2022-10-19T20:46:26;14.40;99.90
21834;DHT22;11079;51.092;3.458;2022-10-19T20:48:59;14.30;99.90
21834;DHT22;11079;51.092;3.458;2022-10-19T20:51:33;14.30;99.90